Time;durP1;ratioP1;P1;durP2;ratioP2;P2;SDS_P1;SDS_P2;PMS_P1;PMS_P2;Temp;Humidity;BMP_temperature;BMP_pressure;BME280_temperature;BME280_humidity;BME280_pressure;Samples;Min_cycle;Max_cycle;Signal;HPM_P1;HPM_P2
2021/10/22 00:01:40;;;;;;;14.75;5.28;;;;;;;;;;6229330;28;20112;-83
2021/10/22 00:04:42;;;;;;;9.52;5.10;;;;;;;;;;6233852;28;20044;-83
2021/10/22 00:07:44;;;;;;;13.93;4.78;;;;;;;;;;6245403;28;20503;-83
2021/10/22 00:10:45;;;;;;;13.23;5.18;;;;;;;;;;6243578;28;20041;-81
2021/10/22 00:13:48;;;;;;;13.38;4.25;;;;;;;;;;6224296;28;20788;-82
2021/10/22 00:16:50;;;;;;;11.02;4.22;;;;;;;;;;6226051;28;20049;-81
2021/10/22 00:19:51;;;;;;;13.02;4.20;;;;;;;;;;6226039;28;20042;-84
2021/10/22 00:22:53;;;;;;;16.35;4.60;;;;;;;;;;6230281;28;20030;-82
2021/10/22 00:25:55;;;;;;;13.93;4.90;;;;;;;;;;6223802;28;20830;-83
2021/10/22 00:28:57;;;;;;;12.95;4.35;;;;;;;;;;6209527;28;20585;-81
2021/10/22 00:31:59;;;;;;;13.52;5.07;;;;;;;;;;6231922;28;20050;-80
2021/10/22 00:35:01;;;;;;;12.95;4.38;;;;;;;;;;6231614;28;20045;-81
2021/10/22 00:38:02;;;;;;;15.80;4.88;;;;;;;;;;6224671;28;20408;-84
2021/10/22 00:41:05;;;;;;;13.95;4.40;;;;;;;;;;6208339;28;20050;-84
2021/10/22 00:44:07;;;;;;;12.07;4.38;;;;;;;;;;6229939;28;20041;-83
2021/10/22 00:47:10;;;;;;;15.15;5.20;;;;;;;;;;6225765;28;20053;-83
2021/10/22 00:50:11;;;;;;;16.20;5.30;;;;;;;;;;6234479;28;20056;-81
2021/10/22 00:53:13;;;;;;;11.70;4.50;;;;;;;;;;6248758;28;20176;-83
2021/10/22 00:56:16;;;;;;;15.60;4.10;;;;;;;;;;6252389;28;20059;-84
2021/10/22 00:59:18;;;;;;;10.75;3.78;;;;;;;;;;6217777;28;20048;-84
2021/10/22 01:02:20;;;;;;;14.05;4.32;;;;;;;;;;6225345;28;20141;-84
2021/10/22 01:05:22;;;;;;;11.55;4.10;;;;;;;;;;6224249;28;20053;-84
2021/10/22 01:08:24;;;;;;;11.48;4.10;;;;;;;;;;6233737;28;20101;-83
2021/10/22 01:11:26;;;;;;;17.23;4.40;;;;;;;;;;6238560;28;20105;-83
2021/10/22 01:14:28;;;;;;;13.38;4.60;;;;;;;;;;6213305;28;20130;-81
2021/10/22 01:17:43;;;;;;;9.10;4.38;;;;;;;;;;6225249;28;20038;-83
2021/10/22 01:20:45;;;;;;;12.60;4.50;;;;;;;;;;6240481;28;20041;-81
2021/10/22 01:23:47;;;;;;;13.15;4.45;;;;;;;;;;6257426;28;20057;-82
2021/10/22 01:26:49;;;;;;;12.35;5.57;;;;;;;;;;6239713;28;20053;-84
2021/10/22 01:29:50;;;;;;;13.55;4.38;;;;;;;;;;6214863;28;20129;-82
2021/10/22 01:32:56;;;;;;;9.30;4.35;;;;;;;;;;6225589;28;20173;-80
2021/10/22 01:35:58;;;;;;;14.05;4.47;;;;;;;;;;6238050;28;20049;-82
2021/10/22 01:39:03;;;;;;;20.65;4.53;;;;;;;;;;6219882;28;20065;-83
2021/10/22 01:42:05;;;;;;;13.60;4.45;;;;;;;;;;6216806;28;20133;-80
2021/10/22 01:45:08;;;;;;;11.25;4.20;;;;;;;;;;6220229;28;20097;-81
2021/10/22 01:48:11;;;;;;;18.25;5.07;;;;;;;;;;6218305;28;20567;-83
2021/10/22 01:51:13;;;;;;;14.85;4.30;;;;;;;;;;6218535;28;20042;-82
2021/10/22 01:54:15;;;;;;;11.23;4.18;;;;;;;;;;6218899;28;20096;-82
2021/10/22 01:57:16;;;;;;;10.82;4.38;;;;;;;;;;6200363;28;20058;-82
2021/10/22 02:00:19;;;;;;;15.65;4.78;;;;;;;;;;6222756;28;20585;-83
2021/10/22 02:03:20;;;;;;;12.93;4.20;;;;;;;;;;6231769;28;20066;-81
2021/10/22 02:06:23;;;;;;;13.57;4.60;;;;;;;;;;6216024;28;20407;-80
2021/10/22 02:09:25;;;;;;;18.55;5.20;;;;;;;;;;6219643;28;20045;-83
2021/10/22 02:12:28;;;;;;;11.93;4.77;;;;;;;;;;6214829;28;20042;-83
2021/10/22 02:15:29;;;;;;;15.77;4.03;;;;;;;;;;6226842;28;20124;-83
2021/10/22 02:18:31;;;;;;;20.30;4.65;;;;;;;;;;6217985;28;20054;-82
2021/10/22 02:21:33;;;;;;;15.20;4.15;;;;;;;;;;6225024;28;20092;-82
2021/10/22 02:24:37;;;;;;;12.70;4.68;;;;;;;;;;6243405;28;20048;-82
2021/10/22 02:27:38;;;;;;;16.60;4.90;;;;;;;;;;6236702;28;20514;-82
2021/10/22 02:30:54;;;;;;;17.00;4.95;;;;;;;;;;6216913;28;20120;-81
2021/10/22 02:33:56;;;;;;;14.25;4.78;;;;;;;;;;6227026;28;20062;-82
2021/10/22 02:36:58;;;;;;;14.50;4.53;;;;;;;;;;6214703;28;20041;-83
2021/10/22 02:39:59;;;;;;;13.05;4.47;;;;;;;;;;6220876;28;20049;-84
2021/10/22 02:43:02;;;;;;;16.08;4.55;;;;;;;;;;6220635;28;20548;-83
2021/10/22 02:46:04;;;;;;;12.20;4.40;;;;;;;;;;6223973;28;20056;-82
2021/10/22 02:49:05;;;;;;;11.80;4.05;;;;;;;;;;6217505;28;20096;-82
2021/10/22 02:52:07;;;;;;;19.70;4.75;;;;;;;;;;6237509;28;20676;-82
2021/10/22 02:55:09;;;;;;;13.80;4.47;;;;;;;;;;6244720;28;20042;-83
2021/10/22 02:58:10;;;;;;;9.18;3.80;;;;;;;;;;6209493;28;20045;-81
2021/10/22 03:01:12;;;;;;;13.13;4.45;;;;;;;;;;6244581;28;20138;-81
2021/10/22 03:04:14;;;;;;;12.48;3.90;;;;;;;;;;6234983;28;20045;-82
2021/10/22 03:07:15;;;;;;;13.40;3.83;;;;;;;;;;6230147;28;20132;-82
2021/10/22 03:10:17;;;;;;;11.27;3.78;;;;;;;;;;6221540;28;20054;-83
2021/10/22 03:13:19;;;;;;;5.73;2.70;;;;;;;;;;6222519;28;20041;-83
2021/10/22 03:16:21;;;;;;;8.38;2.80;;;;;;;;;;6210870;28;20052;-81
2021/10/22 03:19:23;;;;;;;8.77;2.85;;;;;;;;;;6203206;28;20177;-83
2021/10/22 03:22:26;;;;;;;12.48;3.15;;;;;;;;;;6214433;28;20046;-82
2021/10/22 03:25:27;;;;;;;8.43;3.00;;;;;;;;;;6232608;28;20050;-80
2021/10/22 03:28:29;;;;;;;8.70;2.83;;;;;;;;;;6188584;28;20053;-82
2021/10/22 03:31:32;;;;;;;5.50;2.33;;;;;;;;;;6201642;28;20042;-82
2021/10/22 03:34:34;;;;;;;5.88;3.30;;;;;;;;;;6212229;28;20037;-84
2021/10/22 03:37:36;;;;;;;9.73;2.42;;;;;;;;;;6219430;28;20284;-83
2021/10/22 03:40:37;;;;;;;10.13;2.78;;;;;;;;;;6208486;28;20049;-82
2021/10/22 03:43:39;;;;;;;10.55;3.00;;;;;;;;;;6213957;28;20711;-81
2021/10/22 03:46:40;;;;;;;8.70;2.45;;;;;;;;;;6218861;28;20045;-81
2021/10/22 03:49:43;;;;;;;14.25;2.72;;;;;;;;;;6201848;28;20133;-84
2021/10/22 03:52:45;;;;;;;12.88;2.53;;;;;;;;;;6243229;28;20495;-82
2021/10/22 03:55:47;;;;;;;6.43;2.17;;;;;;;;;;6246425;28;20511;-83
2021/10/22 03:58:49;;;;;;;8.05;2.25;;;;;;;;;;6232230;28;20048;-83
2021/10/22 04:01:51;;;;;;;12.20;2.75;;;;;;;;;;6224090;28;20111;-83
2021/10/22 04:04:53;;;;;;;7.63;2.97;;;;;;;;;;6216313;28;20121;-83
2021/10/22 04:07:56;;;;;;;10.77;3.42;;;;;;;;;;6224363;28;20407;-82
2021/10/22 04:10:58;;;;;;;15.80;3.15;;;;;;;;;;6226016;28;20041;-83
2021/10/22 04:14:01;;;;;;;8.38;2.63;;;;;;;;;;6221116;28;20057;-82
2021/10/22 04:17:03;;;;;;;12.00;2.97;;;;;;;;;;6221844;28;20069;-82
2021/10/22 04:20:06;;;;;;;5.28;2.50;;;;;;;;;;6214525;28;20049;-83
2021/10/22 04:23:08;;;;;;;;;;;;;;;;;;6219107;28;20458;-82
2021/10/22 04:26:10;;;;;;;8.52;2.83;;;;;;;;;;6215847;28;19926;-82
2021/10/22 04:29:12;;;;;;;9.07;2.70;;;;;;;;;;6195698;28;20201;-82
2021/10/22 04:32:15;;;;;;;12.98;3.08;;;;;;;;;;6192760;28;20056;-83
2021/10/22 04:35:16;;;;;;;9.13;3.10;;;;;;;;;;6213411;28;20133;-82
2021/10/22 04:41:22;;;;;;;8.50;3.40;;;;;;;;;;6219898;28;20045;-81
2021/10/22 04:44:26;;;;;;;12.75;3.45;;;;;;;;;;6217190;28;20188;-82
2021/10/22 04:47:27;;;;;;;;;;;;;;;;;;6222767;28;20034;-82
2021/10/22 04:50:30;;;;;;;9.85;3.42;;;;;;;;;;6219436;28;20574;-82
2021/10/22 04:53:31;;;;;;;5.57;2.78;;;;;;;;;;6221033;28;20129;-82
2021/10/22 04:56:33;;;;;;;11.02;3.40;;;;;;;;;;6198389;28;20581;-83
2021/10/22 04:59:35;;;;;;;18.88;3.35;;;;;;;;;;6219704;28;20134;-82
2021/10/22 05:02:36;;;;;;;5.88;2.70;;;;;;;;;;6220397;28;20052;-82
2021/10/22 05:05:38;;;;;;;11.25;3.05;;;;;;;;;;6203653;28;20037;-83
2021/10/22 05:08:40;;;;;;;12.05;3.50;;;;;;;;;;6194437;28;20069;-82
2021/10/22 05:11:41;;;;;;;12.27;3.33;;;;;;;;;;6196367;28;20149;-82
2021/10/22 05:14:43;;;;;;;9.95;2.67;;;;;;;;;;6215525;28;20042;-84
2021/10/22 05:17:44;;;;;;;10.18;2.90;;;;;;;;;;6229136;28;20034;-81
2021/10/22 05:20:46;;;;;;;10.18;2.83;;;;;;;;;;6219208;28;20044;-83
2021/10/22 05:23:48;;;;;;;9.40;3.30;;;;;;;;;;6245270;28;20534;-82
2021/10/22 05:26:50;;;;;;;8.70;3.10;;;;;;;;;;6239690;28;20505;-82
2021/10/22 05:29:52;;;;;;;9.15;3.25;;;;;;;;;;6221372;28;20045;-83
2021/10/22 05:32:53;;;;;;;9.40;2.72;;;;;;;;;;6204304;28;20046;-83
2021/10/22 05:35:55;;;;;;;8.10;2.95;;;;;;;;;;6200813;28;20045;-81
2021/10/22 05:38:56;;;;;;;11.27;3.35;;;;;;;;;;6246736;28;20045;-82
2021/10/22 05:41:58;;;;;;;12.05;2.85;;;;;;;;;;6243606;28;20045;-81
2021/10/22 05:45:00;;;;;;;10.65;2.78;;;;;;;;;;6225086;28;20152;-81
2021/10/22 05:48:01;;;;;;;8.63;3.00;;;;;;;;;;6240715;28;20629;-82
2021/10/22 05:51:03;;;;;;;9.23;3.55;;;;;;;;;;6240284;28;20069;-82
2021/10/22 05:54:05;;;;;;;10.27;3.03;;;;;;;;;;6228086;28;20151;-82
2021/10/22 05:57:06;;;;;;;8.45;3.47;;;;;;;;;;6240039;28;20455;-84
2021/10/22 06:00:09;;;;;;;14.57;3.65;;;;;;;;;;6221259;28;20149;-82
2021/10/22 06:03:15;;;;;;;7.85;3.38;;;;;;;;;;6216204;28;20086;-81
2021/10/22 06:06:17;;;;;;;12.02;3.65;;;;;;;;;;6240865;28;20065;-82
2021/10/22 06:09:18;;;;;;;12.20;3.90;;;;;;;;;;6246866;28;20071;-81
2021/10/22 06:12:21;;;;;;;12.20;3.85;;;;;;;;;;6219580;28;20104;-80
2021/10/22 06:15:23;;;;;;;8.73;3.40;;;;;;;;;;6231457;28;20042;-81
2021/10/22 06:18:24;;;;;;;10.15;3.78;;;;;;;;;;6211153;28;20542;-80
2021/10/22 06:22:15;;;;;;;11.35;3.78;;;;;;;;;;6240400;28;20305;-80
2021/10/22 06:24:50;;;;;;;11.30;3.78;;;;;;;;;;6240202;28;20402;-81
2021/10/22 06:27:52;;;;;;;8.25;3.15;;;;;;;;;;6233994;28;20045;-80
2021/10/22 06:30:54;;;;;;;12.73;3.25;;;;;;;;;;6227067;28;20387;-82
2021/10/22 06:33:56;;;;;;;11.10;3.40;;;;;;;;;;6225390;28;20046;-82
2021/10/22 06:36:58;;;;;;;10.87;3.47;;;;;;;;;;6245217;28;20113;-82
2021/10/22 06:40:00;;;;;;;15.13;3.85;;;;;;;;;;6245180;28;20443;-80
2021/10/22 06:43:02;;;;;;;4.95;2.97;;;;;;;;;;6234732;28;20425;-83
2021/10/22 06:46:05;;;;;;;8.90;3.25;;;;;;;;;;6239549;28;20744;-83
2021/10/22 06:49:07;;;;;;;7.40;3.00;;;;;;;;;;6213144;28;20042;-79
2021/10/22 06:52:08;;;;;;;9.93;3.10;;;;;;;;;;6221984;28;20055;-83
2021/10/22 06:55:10;;;;;;;8.90;3.58;;;;;;;;;;6245541;28;20410;-82
2021/10/22 06:58:13;;;;;;;5.22;2.63;;;;;;;;;;6238997;28;20058;-82
2021/10/22 07:01:15;;;;;;;10.32;3.58;;;;;;;;;;6215243;28;20132;-84
2021/10/22 07:04:17;;;;;;;12.07;3.03;;;;;;;;;;6212658;28;20052;-82
2021/10/22 07:07:19;;;;;;;9.50;2.80;;;;;;;;;;6217293;28;20050;-82
2021/10/22 07:10:20;;;;;;;5.53;1.63;;;;;;;;;;6203397;28;20053;-80
2021/10/22 07:13:22;;;;;;;10.75;2.83;;;;;;;;;;6216188;28;20045;-82
2021/10/22 07:16:27;;;;;;;9.13;2.53;;;;;;;;;;6218118;28;20045;-82
2021/10/22 07:19:29;;;;;;;8.43;2.40;;;;;;;;;;6211360;28;20045;-83
2021/10/22 07:22:32;;;;;;;6.88;2.00;;;;;;;;;;6199385;28;20407;-81
2021/10/22 07:25:38;;;;;;;5.70;2.15;;;;;;;;;;6216467;28;20223;-82
2021/10/22 07:28:40;;;;;;;7.75;2.40;;;;;;;;;;6213372;28;20045;-82
2021/10/22 07:31:41;;;;;;;4.97;2.10;;;;;;;;;;6216472;28;20041;-82
2021/10/22 07:34:43;;;;;;;7.78;2.28;;;;;;;;;;6215497;28;20080;-83
2021/10/22 07:37:45;;;;;;;5.53;1.88;;;;;;;;;;6223798;28;20045;-81
2021/10/22 07:40:48;;;;;;;6.68;2.10;;;;;;;;;;6242978;28;20052;-80
2021/10/22 07:43:49;;;;;;;8.77;2.30;;;;;;;;;;6212905;28;20096;-83
2021/10/22 07:46:52;;;;;;;8.77;2.53;;;;;;;;;;6198072;28;20041;-82
2021/10/22 07:49:54;;;;;;;4.88;1.98;;;;;;;;;;6209567;28;20072;-82
2021/10/22 07:52:56;;;;;;;5.55;2.10;;;;;;;;;;6239490;28;20048;-82
2021/10/22 07:55:58;;;;;;;5.40;2.10;;;;;;;;;;6240502;28;20495;-81
2021/10/22 07:58:59;;;;;;;6.75;2.83;;;;;;;;;;6197837;28;20050;-82
2021/10/22 08:02:21;;;;;;;10.40;2.25;;;;;;;;;;6216909;28;20133;-81
2021/10/22 08:05:23;;;;;;;12.68;3.08;;;;;;;;;;6208983;28;20045;-81
2021/10/22 08:08:25;;;;;;;24.95;10.80;;;;;;;;;;6217974;28;20077;-82
2021/10/22 08:11:27;;;;;;;10.45;3.80;;;;;;;;;;6199090;28;20053;-82
2021/10/22 08:14:29;;;;;;;8.90;2.92;;;;;;;;;;6242240;28;20052;-82
2021/10/22 08:17:30;;;;;;;9.10;1.90;;;;;;;;;;6217171;28;20194;-81
2021/10/22 08:20:34;;;;;;;6.43;2.17;;;;;;;;;;6199688;28;20048;-82
2021/10/22 08:23:36;;;;;;;11.55;2.10;;;;;;;;;;6196104;28;20117;-81
2021/10/22 08:26:38;;;;;;;5.32;2.30;;;;;;;;;;6197929;28;20042;-81
2021/10/22 08:29:56;;;;;;;5.10;1.73;;;;;;;;;;6200463;28;20050;-81
2021/10/22 08:32:59;;;;;;;7.55;2.00;;;;;;;;;;6199911;28;20551;-81
2021/10/22 08:36:01;;;;;;;3.83;1.90;;;;;;;;;;6199101;28;20116;-81
2021/10/22 08:39:02;;;;;;;7.78;2.08;;;;;;;;;;6197364;28;20445;-82
2021/10/22 08:42:05;;;;;;;8.88;2.05;;;;;;;;;;6202202;28;20044;-79
2021/10/22 08:45:06;;;;;;;5.63;1.88;;;;;;;;;;6208060;28;20069;-80
2021/10/22 08:48:09;;;;;;;8.10;2.15;;;;;;;;;;6202694;28;22796;-81
2021/10/22 08:51:18;;;;;;;7.65;1.90;;;;;;;;;;6202064;28;20128;-81
2021/10/22 08:54:20;;;;;;;5.25;1.90;;;;;;;;;;6199281;28;20058;-83
2021/10/22 08:57:46;;;;;;;8.13;2.83;;;;;;;;;;6203299;28;20038;-82
2021/10/22 09:00:48;;;;;;;7.00;2.00;;;;;;;;;;6213521;28;20050;-82
2021/10/22 09:03:51;;;;;;;4.32;1.60;;;;;;;;;;6216700;28;20129;-82
2021/10/22 09:06:53;;;;;;;4.80;1.90;;;;;;;;;;6218083;28;20666;-82
2021/10/22 09:10:13;;;;;;;16.80;7.13;;;;;;;;;;6203982;28;20044;-81
2021/10/22 09:13:17;;;;;;;5.40;3.45;;;;;;;;;;6215103;28;20069;-81
2021/10/22 09:16:22;;;;;;;5.20;2.88;;;;;;;;;;6218739;28;20038;-81
2021/10/22 09:19:36;;;;;;;5.00;1.48;;;;;;;;;;6218861;28;20515;-82
2021/10/22 09:22:39;;;;;;;4.00;1.55;;;;;;;;;;6235020;28;20046;-81
2021/10/22 09:25:41;;;;;;;5.35;1.75;;;;;;;;;;6246583;28;20518;-82
2021/10/22 09:28:44;;;;;;;3.47;1.10;;;;;;;;;;6235111;28;20523;-82
2021/10/22 09:31:54;;;;;;;5.68;1.55;;;;;;;;;;6220687;28;20097;-83
2021/10/22 09:34:55;;;;;;;5.47;1.15;;;;;;;;;;6213537;28;20172;-82
2021/10/22 09:38:06;;;;;;;4.70;1.58;;;;;;;;;;6230912;28;20777;-83
2021/10/22 09:41:08;;;;;;;5.18;1.35;;;;;;;;;;6247231;28;20049;-83
2021/10/22 09:44:20;;;;;;;6.53;1.42;;;;;;;;;;6226978;28;20049;-81
2021/10/22 09:47:22;;;;;;;4.63;1.27;;;;;;;;;;6220792;28;20603;-83
2021/10/22 09:50:27;;;;;;;3.35;1.23;;;;;;;;;;6217093;28;20056;-83
2021/10/22 09:53:40;;;;;;;6.57;1.42;;;;;;;;;;6213856;28;20053;-84
2021/10/22 09:56:53;;;;;;;5.30;1.30;;;;;;;;;;6212494;28;20097;-82
2021/10/22 10:00:08;;;;;;;6.30;1.30;;;;;;;;;;6214434;28;20125;-82
2021/10/22 10:03:10;;;;;;;6.22;1.35;;;;;;;;;;6196822;28;20061;-81
2021/10/22 10:06:12;;;;;;;4.90;1.65;;;;;;;;;;6194485;28;20061;-80
2021/10/22 10:09:14;;;;;;;5.15;1.20;;;;;;;;;;6242782;28;20507;-83
2021/10/22 10:12:16;;;;;;;3.20;1.13;;;;;;;;;;6238357;28;20129;-83
2021/10/22 10:15:18;;;;;;;6.50;1.50;;;;;;;;;;6225954;28;20121;-83
2021/10/22 10:18:21;;;;;;;3.50;1.02;;;;;;;;;;6215570;28;20050;-83
2021/10/22 10:21:25;;;;;;;6.35;1.17;;;;;;;;;;6216677;28;20121;-82
2021/10/22 10:24:33;;;;;;;3.55;1.10;;;;;;;;;;6219657;28;20053;-83
2021/10/22 10:27:47;;;;;;;4.75;0.98;;;;;;;;;;6200846;28;20041;-82
2021/10/22 10:30:49;;;;;;;4.35;1.02;;;;;;;;;;6218211;28;20124;-80
2021/10/22 10:33:50;;;;;;;3.95;1.77;;;;;;;;;;6216774;28;20038;-82
2021/10/22 10:36:54;;;;;;;8.43;1.88;;;;;;;;;;6218590;28;20042;-83
2021/10/22 10:39:55;;;;;;;;;;;;;;;;;;6220326;28;20045;-83
2021/10/22 10:43:02;;;;;;;6.32;3.45;;;;;;;;;;6219993;28;19960;-83
2021/10/22 10:46:04;;;;;;;3.72;1.08;;;;;;;;;;6242201;28;20095;-82
2021/10/22 10:49:05;;;;;;;4.32;1.30;;;;;;;;;;6234550;28;20045;-82
2021/10/22 10:52:27;;;;;;;2.90;1.20;;;;;;;;;;6223462;28;20052;-84
2021/10/22 10:55:35;;;;;;;3.63;0.90;;;;;;;;;;6200146;28;20058;-82
2021/10/22 10:58:42;;;;;;;3.88;1.42;;;;;;;;;;6210594;28;20046;-83
2021/10/22 11:01:56;;;;;;;4.13;1.10;;;;;;;;;;6212648;28;20048;-83
2021/10/22 11:04:57;;;;;;;7.20;2.22;;;;;;;;;;6206862;28;20523;-83
2021/10/22 11:08:21;;;;;;;3.78;0.60;;;;;;;;;;6201090;28;20050;-82
2021/10/22 11:11:27;;;;;;;;;;;;;;;;;;6197561;28;20049;-82
2021/10/22 11:14:43;;;;;;;4.57;1.00;;;;;;;;;;6203159;28;20026;-83
2021/10/22 11:17:45;;;;;;;4.35;0.63;;;;;;;;;;6183023;28;20045;-82
2021/10/22 11:20:48;;;;;;;3.30;0.80;;;;;;;;;;6203222;28;20091;-81
2021/10/22 11:23:50;;;;;;;5.93;0.70;;;;;;;;;;6198959;28;20050;-82
2021/10/22 11:26:56;;;;;;;3.35;0.80;;;;;;;;;;6202939;28;20056;-82
2021/10/22 11:30:00;;;;;;;4.70;1.02;;;;;;;;;;6181502;28;20050;-82
2021/10/22 11:33:02;;;;;;;1.73;0.68;;;;;;;;;;6215169;28;20048;-83
2021/10/22 11:36:04;;;;;;;4.40;0.90;;;;;;;;;;6215242;28;20048;-82
2021/10/22 11:39:30;;;;;;;3.25;0.50;;;;;;;;;;6218614;28;20057;-83
2021/10/22 11:42:33;;;;;;;4.75;1.02;;;;;;;;;;6214166;28;20049;-81
2021/10/22 11:45:35;;;;;;;2.80;0.95;;;;;;;;;;6239069;28;20041;-84
2021/10/22 11:48:36;;;;;;;5.05;0.80;;;;;;;;;;6211494;28;20038;-83
2021/10/22 11:51:38;;;;;;;4.18;0.75;;;;;;;;;;6233648;28;20112;-82
2021/10/22 11:54:42;;;;;;;3.50;0.85;;;;;;;;;;6241742;28;20041;-82
2021/10/22 11:57:43;;;;;;;;;;;;;;;;;;6230241;28;20042;-83
2021/10/22 12:00:53;;;;;;;2.47;0.70;;;;;;;;;;6203845;28;19921;-83
2021/10/22 12:03:55;;;;;;;5.07;1.02;;;;;;;;;;6211943;28;20173;-83
2021/10/22 12:07:03;;;;;;;4.03;0.80;;;;;;;;;;6241458;28;20093;-83
2021/10/22 12:10:08;;;;;;;1.48;0.80;;;;;;;;;;6241592;28;20045;-83
2021/10/22 12:13:10;;;;;;;2.25;0.57;;;;;;;;;;6212675;28;20058;-81
2021/10/22 12:16:26;;;;;;;3.60;1.00;;;;;;;;;;6242371;28;20132;-83
2021/10/22 12:19:28;;;;;;;3.97;0.90;;;;;;;;;;6222212;28;20061;-82
2021/10/22 12:22:35;;;;;;;1.92;0.65;;;;;;;;;;6238067;28;20052;-81
2021/10/22 12:25:37;;;;;;;2.22;0.90;;;;;;;;;;6246871;28;20098;-84
2021/10/22 12:28:39;;;;;;;2.33;0.50;;;;;;;;;;6231204;28;20057;-82
2021/10/22 12:31:52;;;;;;;2.75;0.55;;;;;;;;;;6230405;28;20050;-84
2021/10/22 12:34:54;;;;;;;0.95;0.50;;;;;;;;;;6227422;28;20038;-83
2021/10/22 12:37:55;;;;;;;1.27;0.40;;;;;;;;;;6221912;28;20042;-83
2021/10/22 12:40:59;;;;;;;2.72;0.60;;;;;;;;;;6218183;28;20054;-82
2021/10/22 12:44:14;;;;;;;1.40;0.73;;;;;;;;;;6222328;28;20056;-82
2021/10/22 12:47:16;;;;;;;3.17;0.95;;;;;;;;;;6221970;28;20046;-82
2021/10/22 12:50:26;;;;;;;3.03;0.50;;;;;;;;;;6209542;28;20038;-83
2021/10/22 12:53:33;;;;;;;2.53;0.60;;;;;;;;;;6222403;28;20042;-83
2021/10/22 12:56:35;;;;;;;2.22;0.55;;;;;;;;;;6225538;28;20038;-83
2021/10/22 12:59:37;;;;;;;2.17;0.47;;;;;;;;;;6226510;28;20042;-82
2021/10/22 13:02:38;;;;;;;2.63;0.55;;;;;;;;;;6225218;28;20057;-81
2021/10/22 13:05:42;;;;;;;2.47;0.55;;;;;;;;;;6215811;28;20054;-82
2021/10/22 13:21:50;;;;;;;4.05;0.65;;;;;;;;;;6230951;28;20041;-81
2021/10/22 13:24:54;;;;;;;2.72;0.80;;;;;;;;;;6235047;28;20041;-80
2021/10/22 13:27:56;;;;;;;3.78;0.75;;;;;;;;;;6201271;28;20046;-82
2021/10/22 13:31:10;;;;;;;3.85;0.77;;;;;;;;;;6215022;28;20045;-82
2021/10/22 13:34:13;;;;;;;2.00;0.55;;;;;;;;;;6213797;28;20050;-83
2021/10/22 13:37:16;;;;;;;2.83;0.90;;;;;;;;;;6219054;28;20053;-82
2021/10/22 13:40:18;;;;;;;5.75;1.30;;;;;;;;;;6201449;28;20503;-81
2021/10/22 13:43:21;;;;;;;1.80;1.07;;;;;;;;;;6217342;28;20101;-81
2021/10/22 13:46:23;;;;;;;2.28;0.80;;;;;;;;;;6213397;28;20045;-80
2021/10/22 13:49:25;;;;;;;3.85;0.73;;;;;;;;;;6209368;28;20108;-82
2021/10/22 13:52:26;;;;;;;4.97;1.17;;;;;;;;;;6224585;28;20041;-82
2021/10/22 13:55:28;;;;;;;2.60;0.77;;;;;;;;;;6221157;28;20042;-82
2021/10/22 13:58:29;;;;;;;3.92;0.70;;;;;;;;;;6219169;28;20049;-81
2021/10/22 14:01:32;;;;;;;3.58;0.80;;;;;;;;;;6199493;28;20499;-81
2021/10/22 14:04:34;;;;;;;2.13;0.63;;;;;;;;;;6225923;28;20104;-81
2021/10/22 14:07:36;;;;;;;2.53;0.82;;;;;;;;;;6240600;28;20437;-81
2021/10/22 14:10:40;;;;;;;4.28;0.77;;;;;;;;;;6219799;28;20071;-80
2021/10/22 14:13:57;;;;;;;2.22;0.70;;;;;;;;;;6221962;28;20374;-82
2021/10/22 14:29:57;;;;;;;2.20;0.75;;;;;;;;;;6193920;28;20042;-81
2021/10/22 14:32:59;;;;;;;1.23;0.50;;;;;;;;;;6187973;28;20131;-82
2021/10/22 14:36:01;;;;;;;1.48;0.70;;;;;;;;;;6223273;28;20042;-80
2021/10/22 14:39:04;;;;;;;3.05;0.80;;;;;;;;;;6218295;28;20059;-81
2021/10/22 14:42:08;;;;;;;4.82;0.60;;;;;;;;;;6228245;28;20046;-81
2021/10/22 14:46:13;;;;;;;1.85;1.08;;;;;;;;;;6211437;28;20124;-81
2021/10/22 14:48:56;;;;;;;4.32;0.90;;;;;;;;;;6199095;28;20042;-80
2021/10/22 14:52:07;;;;;;;3.80;1.05;;;;;;;;;;6214496;28;20052;-81
2021/10/22 14:55:23;;;;;;;2.10;0.70;;;;;;;;;;6211992;28;20052;-82
2021/10/22 14:58:35;;;;;;;2.17;0.75;;;;;;;;;;6214515;28;20191;-81
2021/10/22 15:01:39;;;;;;;2.20;0.90;;;;;;;;;;6216894;28;20044;-81
2021/10/22 15:04:43;;;;;;;5.30;0.90;;;;;;;;;;6212872;28;20041;-83
2021/10/22 15:07:44;;;;;;;3.20;0.90;;;;;;;;;;6224775;28;20045;-82
2021/10/22 15:10:50;;;;;;;2.63;0.80;;;;;;;;;;6230359;28;20125;-80
2021/10/22 15:13:53;;;;;;;3.45;1.17;;;;;;;;;;6211213;28;20177;-81
2021/10/22 15:16:54;;;;;;;2.30;1.10;;;;;;;;;;6206535;28;20045;-82
2021/10/22 15:19:57;;;;;;;3.95;1.00;;;;;;;;;;6195385;28;20038;-81
2021/10/22 15:22:58;;;;;;;3.95;1.00;;;;;;;;;;6206540;28;20052;-80
2021/10/22 15:26:00;;;;;;;3.35;0.90;;;;;;;;;;6218049;28;20053;-79
2021/10/22 15:29:02;;;;;;;3.08;1.05;;;;;;;;;;6217587;28;20687;-80
2021/10/22 15:32:04;;;;;;;2.10;1.00;;;;;;;;;;6211569;28;20057;-79
2021/10/22 15:35:07;;;;;;;5.18;1.60;;;;;;;;;;6207474;28;20129;-80
2021/10/22 15:38:09;;;;;;;3.33;1.48;;;;;;;;;;6214764;28;20120;-82
2021/10/22 15:41:10;;;;;;;3.67;1.25;;;;;;;;;;6216362;28;20049;-83
2021/10/22 15:44:12;;;;;;;4.05;1.83;;;;;;;;;;6210032;28;20046;-80
2021/10/22 15:47:13;;;;;;;2.08;1.02;;;;;;;;;;6222189;28;20048;-82
2021/10/22 15:50:15;;;;;;;5.70;1.17;;;;;;;;;;6216523;28;20224;-81
2021/10/22 15:53:19;;;;;;;3.90;1.33;;;;;;;;;;6240688;28;20449;-80
2021/10/22 15:56:21;;;;;;;5.10;1.58;;;;;;;;;;6203884;28;20161;-81
2021/10/22 15:59:22;;;;;;;3.70;1.38;;;;;;;;;;6202069;28;20043;-83
2021/10/22 16:02:25;;;;;;;3.08;1.00;;;;;;;;;;6204452;28;20049;-83
2021/10/22 16:05:26;;;;;;;1.73;1.00;;;;;;;;;;6207775;28;20584;-81
2021/10/22 16:08:58;;;;;;;2.72;1.05;;;;;;;;;;6237313;28;20041;-81
2021/10/22 16:11:52;;;;;;;4.22;1.20;;;;;;;;;;6240264;28;20057;-81
2021/10/22 16:18:01;;;;;;;2.38;1.20;;;;;;;;;;6213650;28;20064;-82
2021/10/22 16:21:02;;;;;;;11.27;1.27;;;;;;;;;;6213438;28;20042;-80
2021/10/22 16:24:04;;;;;;;5.45;1.35;;;;;;;;;;6198050;28;20070;-81
2021/10/22 16:27:06;;;;;;;4.57;1.02;;;;;;;;;;6209125;28;20053;-80
2021/10/22 16:30:08;;;;;;;4.57;1.05;;;;;;;;;;6211865;28;20462;-82
2021/10/22 16:36:29;;;;;;;3.47;0.98;;;;;;;;;;6230399;28;20045;-80
2021/10/22 16:39:31;;;;;;;4.32;1.42;;;;;;;;;;6216653;28;20089;-81
2021/10/22 16:42:40;;;;;;;2.35;1.45;;;;;;;;;;6216908;28;20056;-80
2021/10/22 16:45:45;;;;;;;4.93;1.38;;;;;;;;;;6214357;28;20125;-80
2021/10/22 16:48:49;;;;;;;1.92;1.40;;;;;;;;;;6225601;28;20046;-82
2021/10/22 16:51:54;;;;;;;2.95;1.33;;;;;;;;;;6216476;28;20286;-82
2021/10/22 16:54:56;;;;;;;6.53;1.60;;;;;;;;;;6214004;28;20050;-81
2021/10/22 16:57:58;;;;;;;6.68;1.40;;;;;;;;;;6218643;28;20070;-83
2021/10/22 17:00:59;;;;;;;3.08;1.30;;;;;;;;;;6243021;28;20047;-83
2021/10/22 17:04:02;;;;;;;4.97;1.55;;;;;;;;;;6224786;28;20050;-81
2021/10/22 17:07:04;;;;;;;5.68;1.77;;;;;;;;;;6213999;28;20050;-83
2021/10/22 17:10:06;;;;;;;2.42;1.30;;;;;;;;;;6204666;28;20415;-81
2021/10/22 17:13:08;;;;;;;5.03;2.20;;;;;;;;;;6220819;28;20041;-82
2021/10/22 17:16:10;;;;;;;4.75;1.85;;;;;;;;;;6219919;28;20534;-81
2021/10/22 17:19:12;;;;;;;5.65;1.85;;;;;;;;;;6215025;28;20034;-81
2021/10/22 17:22:15;;;;;;;4.40;1.77;;;;;;;;;;6220554;28;20438;-79
2021/10/22 17:25:17;;;;;;;7.57;1.92;;;;;;;;;;6221654;28;20129;-82
2021/10/22 17:28:19;;;;;;;5.07;1.90;;;;;;;;;;6215838;28;20518;-81
2021/10/22 17:31:22;;;;;;;3.90;2.20;;;;;;;;;;6216582;28;20393;-79
2021/10/22 17:34:23;;;;;;;5.63;1.85;;;;;;;;;;6213037;28;20046;-80
2021/10/22 17:37:25;;;;;;;4.63;2.10;;;;;;;;;;6213465;28;20045;-80
2021/10/22 17:40:28;;;;;;;4.03;2.00;;;;;;;;;;6197045;28;20568;-80
2021/10/22 17:43:30;;;;;;;4.03;2.10;;;;;;;;;;6213655;28;21058;-81
2021/10/22 17:46:32;;;;;;;5.83;2.57;;;;;;;;;;6216585;28;20042;-80
2021/10/22 17:49:34;;;;;;;3.72;2.33;;;;;;;;;;6212952;28;20814;-81
2021/10/22 17:52:38;;;;;;;3.63;2.33;;;;;;;;;;6215157;28;20164;-80
2021/10/22 17:55:40;;;;;;;6.05;2.40;;;;;;;;;;6213114;28;20105;-82
2021/10/22 17:58:43;;;;;;;2.80;1.95;;;;;;;;;;6221666;28;20056;-80
2021/10/22 18:01:45;;;;;;;4.93;2.55;;;;;;;;;;6215210;28;20053;-82
2021/10/22 18:04:51;;;;;;;4.20;2.28;;;;;;;;;;6212150;28;20511;-80
2021/10/22 18:07:53;;;;;;;3.50;2.30;;;;;;;;;;6214501;28;20060;-82
2021/10/22 18:10:56;;;;;;;7.60;2.58;;;;;;;;;;6215054;28;20529;-82
2021/10/22 18:13:58;;;;;;;;;;;;;;;;;;6219989;28;20411;-80
2021/10/22 18:17:01;;;;;;;4.05;2.10;;;;;;;;;;6227977;28;19975;-82
2021/10/22 18:20:05;;;;;;;6.60;2.70;;;;;;;;;;6212109;28;20085;-80
2021/10/22 18:23:07;;;;;;;3.88;2.50;;;;;;;;;;6212140;28;20368;-81
2021/10/22 18:26:09;;;;;;;4.78;2.35;;;;;;;;;;6214385;28;20046;-80
2021/10/22 18:29:22;;;;;;;9.52;2.80;;;;;;;;;;6206922;28;20042;-80
2021/10/22 18:32:30;;;;;;;5.53;2.42;;;;;;;;;;6234449;28;20052;-82
2021/10/22 18:35:32;;;;;;;8.05;2.40;;;;;;;;;;6208761;28;20042;-81
2021/10/22 18:38:35;;;;;;;3.63;2.65;;;;;;;;;;6213239;28;20128;-80
2021/10/22 18:41:37;;;;;;;5.68;2.70;;;;;;;;;;6213888;28;20176;-80
2021/10/22 18:44:39;;;;;;;3.90;2.38;;;;;;;;;;6204643;28;20156;-80
2021/10/22 18:47:41;;;;;;;8.23;4.50;;;;;;;;;;6209212;28;20041;-79
2021/10/22 18:50:43;;;;;;;6.85;3.30;;;;;;;;;;6206838;28;20048;-81
2021/10/22 18:53:45;;;;;;;4.30;2.03;;;;;;;;;;6215534;28;20042;-80